Time;durP1;ratioP1;P1;durP2;ratioP2;P2;SDS_P1;SDS_P2;PMS_P1;PMS_P2;Temp;Humidity;BMP_temperature;BMP_pressure;BME280_temperature;BME280_humidity;BME280_pressure;Samples;Min_cycle;Max_cycle;Signal;HPM_P1;HPM_P2
2022/10/31 00:00:11;;;;;;;47.27;42.17;;;;;21.40;100967.00;;;;2070738;28;20257;-54
2022/10/31 00:01:13;;;;;;;46.60;41.60;;;;;21.40;100962.00;;;;2071321;28;20230;-54
2022/10/31 00:02:13;;;;;;;47.13;41.83;;;;;21.40;100965.00;;;;2070636;28;20254;-54
2022/10/31 00:03:14;;;;;;;47.37;41.37;;;;;21.40;100984.00;;;;2071168;28;20229;-52
2022/10/31 00:04:14;;;;;;;45.40;40.50;;;;;21.40;100964.00;;;;2071444;28;20225;-52
2022/10/31 00:05:15;;;;;;;46.53;41.53;;;;;21.40;100966.00;;;;2071248;28;20236;-52
2022/10/31 00:06:17;;;;;;;44.70;39.90;;;;;21.40;100964.00;;;;2071316;28;20240;-53
2022/10/31 00:07:18;;;;;;;47.42;42.35;;;;;21.40;100969.00;;;;2071415;28;20238;-54
2022/10/31 00:08:18;;;;;;;43.93;39.40;;;;;21.30;100962.00;;;;2071439;28;20264;-54
2022/10/31 00:09:18;;;;;;;43.53;38.33;;;;;21.40;100966.00;;;;2070683;28;20222;-52
2022/10/31 00:10:19;;;;;;;45.73;40.47;;;;;21.40;100966.00;;;;2071342;28;20217;-53
2022/10/31 00:11:19;;;;;;;42.57;37.97;;;;;21.40;100969.00;;;;2070680;28;20583;-53
2022/10/31 00:12:19;;;;;;;43.30;38.50;;;;;21.40;100958.00;;;;2070187;28;20214;-57
2022/10/31 00:13:20;;;;;;;43.63;38.93;;;;;21.40;100963.00;;;;2071477;28;20330;-56
2022/10/31 00:14:20;;;;;;;43.30;38.60;;;;;21.40;100967.00;;;;2071319;28;20652;-55
2022/10/31 00:15:20;;;;;;;41.70;37.00;;;;;21.40;100965.00;;;;2071427;28;20574;-52
2022/10/31 00:16:24;;;;;;;42.70;37.60;;;;;21.40;100964.00;;;;2071529;28;20559;-52
2022/10/31 00:17:24;;;;;;;42.72;37.83;;;;;21.40;100961.00;;;;2071647;28;20242;-52
2022/10/31 00:18:25;;;;;;;42.87;38.37;;;;;21.40;100957.00;;;;2071625;28;20218;-52
2022/10/31 00:19:25;;;;;;;40.37;36.07;;;;;21.40;100967.00;;;;2070341;28;20228;-52
2022/10/31 00:20:25;;;;;;;42.13;37.43;;;;;21.40;100964.00;;;;2071253;28;20201;-53
2022/10/31 00:21:26;;;;;;;40.00;35.73;;;;;21.40;100952.00;;;;2061147;28;20217;-53
2022/10/31 00:22:26;;;;;;;39.40;35.20;;;;;21.40;100957.00;;;;2081212;28;20235;-53
2022/10/31 00:23:27;;;;;;;40.63;35.83;;;;;21.40;100957.00;;;;2086310;28;20217;-53
2022/10/31 00:24:27;;;;;;;38.47;34.30;;;;;21.40;100961.00;;;;2079236;28;20213;-54
2022/10/31 00:25:28;;;;;;;37.60;33.57;;;;;21.40;100956.00;;;;2079418;28;20202;-53
2022/10/31 00:26:30;;;;;;;41.22;35.92;;;;;21.40;100955.00;;;;2079446;28;20213;-54
2022/10/31 00:27:31;;;;;;;38.75;34.45;;;;;21.40;100955.00;;;;2078205;28;20214;-53
2022/10/31 00:28:31;;;;;;;40.17;34.53;;;;;21.40;100952.00;;;;2077404;28;20221;-54
2022/10/31 00:29:32;;;;;;;40.27;35.87;;;;;21.40;100960.00;;;;2070701;28;20210;-52
2022/10/31 00:30:32;;;;;;;38.80;34.60;;;;;21.40;100953.00;;;;2070606;28;20206;-53
2022/10/31 00:31:33;;;;;;;37.07;33.00;;;;;21.40;100960.00;;;;2074586;28;20220;-52
2022/10/31 00:32:33;;;;;;;37.57;33.60;;;;;21.40;100955.00;;;;2078792;28;20293;-53
2022/10/31 00:33:34;;;;;;;37.37;32.87;;;;;21.40;100959.00;;;;2079398;28;20206;-53
2022/10/31 00:34:35;;;;;;;37.67;33.70;;;;;21.40;100955.00;;;;2078697;28;20737;-52
2022/10/31 00:35:36;;;;;;;34.67;30.93;;;;;21.40;100968.00;;;;2079446;28;20574;-53
2022/10/31 00:36:36;;;;;;;35.10;31.40;;;;;21.40;100964.00;;;;2067416;28;20784;-52
2022/10/31 00:37:36;;;;;;;35.17;31.17;;;;;21.40;100969.00;;;;2071029;28;20476;-52
2022/10/31 00:38:37;;;;;;;34.57;30.90;;;;;21.40;100960.00;;;;2071483;28;20240;-53
2022/10/31 00:39:37;;;;;;;35.10;31.30;;;;;21.40;100958.00;;;;2071549;28;20202;-53
2022/10/31 00:40:37;;;;;;;34.53;30.93;;;;;21.40;100955.00;;;;2071142;28;20704;-53
2022/10/31 00:41:38;;;;;;;33.47;29.90;;;;;21.30;100955.00;;;;2071024;28;20695;-53
2022/10/31 00:42:41;;;;;;;34.40;30.77;;;;;21.40;100952.00;;;;2070305;28;20240;-53
2022/10/31 00:43:42;;;;;;;33.65;30.10;;;;;21.40;100955.00;;;;2071111;28;20257;-53
2022/10/31 00:44:42;;;;;;;33.43;29.70;;;;;21.40;100979.00;;;;2072042;28;20637;-52
2022/10/31 00:45:43;;;;;;;33.47;30.00;;;;;21.30;100961.00;;;;2078816;28;20815;-53
2022/10/31 00:46:43;;;;;;;34.87;29.50;;;;;21.30;100968.00;;;;2078874;28;21082;-52
2022/10/31 00:47:43;;;;;;;32.63;29.13;;;;;21.40;100964.00;;;;2079205;28;20200;-52
2022/10/31 00:48:43;;;;;;;31.73;28.50;;;;;21.30;100969.00;;;;2079525;28;20198;-52
2022/10/31 00:49:44;;;;;;;33.47;30.03;;;;;21.30;100966.00;;;;2079422;28;20253;-54
2022/10/31 00:50:45;;;;;;;34.90;31.07;;;;;21.40;100997.00;;;;2078619;28;21906;-53
2022/10/31 00:51:45;;;;;;;33.50;28.30;;;;;21.30;100965.00;;;;2078352;28;20666;-53
2022/10/31 00:52:45;;;;;;;33.10;29.63;;;;;21.30;100972.00;;;;2076727;28;20724;-52
2022/10/31 00:53:46;;;;;;;32.30;28.40;;;;;21.30;100973.00;;;;2078650;28;20685;-52
2022/10/31 00:54:46;;;;;;;32.07;28.57;;;;;21.30;100973.00;;;;2079317;28;20213;-53
2022/10/31 00:55:46;;;;;;;30.60;27.33;;;;;21.30;100977.00;;;;2078958;28;20242;-53
2022/10/31 00:56:47;;;;;;;29.50;26.40;;;;;21.30;100966.00;;;;2075614;28;20223;-53
2022/10/31 00:57:47;;;;;;;31.63;27.50;;;;;21.30;100964.00;;;;2072237;28;20218;-51
2022/10/31 00:58:48;;;;;;;32.43;26.67;;;;;21.40;100978.00;;;;2079033;28;20217;-52
2022/10/31 00:59:48;;;;;;;30.37;27.10;;;;;21.30;100972.00;;;;2079128;28;20269;-53
2022/10/31 01:00:54;;;;;;;32.77;28.20;;;;;21.30;100980.00;;;;2079242;28;20218;-53
2022/10/31 01:01:55;;;;;;;29.27;26.20;;;;;21.30;100979.00;;;;2067456;28;20973;-54
2022/10/31 01:02:55;;;;;;;29.13;25.97;;;;;21.30;100963.00;;;;2079101;28;20217;-53
2022/10/31 01:03:55;;;;;;;29.33;25.93;;;;;21.30;100975.00;;;;2078638;28;20276;-52
2022/10/31 01:04:56;;;;;;;29.20;26.10;;;;;21.30;100981.00;;;;2079099;28;20244;-53
2022/10/31 01:06:00;;;;;;;29.20;25.97;;;;;21.30;100980.00;;;;2079320;28;20222;-53
2022/10/31 01:07:00;;;;;;;30.23;26.92;;;;;21.30;100965.00;;;;2077850;28;20217;-52
2022/10/31 01:08:00;;;;;;;29.97;26.07;;;;;21.30;100969.00;;;;2078484;28;20708;-53
2022/10/31 01:09:01;;;;;;;29.00;25.80;;;;;21.30;100960.00;;;;2079299;28;20212;-51
2022/10/31 01:10:01;;;;;;;28.50;25.63;;;;;21.30;100972.00;;;;2077882;28;20559;-52
2022/10/31 01:11:02;;;;;;;28.10;25.10;;;;;21.30;100960.00;;;;2079033;28;20624;-53
2022/10/31 01:12:02;;;;;;;26.88;24.08;;;;;21.30;100965.00;;;;2078358;28;20236;-53
2022/10/31 01:13:03;;;;;;;27.00;24.23;;;;;21.30;100973.00;;;;2079061;28;20206;-53
2022/10/31 01:14:03;;;;;;;28.60;25.60;;;;;21.30;100976.00;;;;2071795;28;20223;-52
2022/10/31 01:15:04;;;;;;;25.43;22.80;;;;;21.30;100978.00;;;;2078959;28;20209;-54
2022/10/31 01:16:05;;;;;;;26.57;23.97;;;;;21.30;100957.00;;;;2078846;28;20280;-52
2022/10/31 01:17:06;;;;;;;29.10;26.13;;;;;21.30;100962.00;;;;2078512;28;20971;-52
2022/10/31 01:18:06;;;;;;;28.57;25.50;;;;;21.30;100959.00;;;;2074087;28;20223;-52
2022/10/31 01:19:07;;;;;;;26.75;23.95;;;;;21.30;100968.00;;;;2078792;28;20229;-52
2022/10/31 01:20:08;;;;;;;25.93;23.33;;;;;21.30;100977.00;;;;2079309;28;20293;-54
2022/10/31 01:21:11;;;;;;;27.93;25.03;;;;;21.30;100978.00;;;;2077312;28;20225;-52
2022/10/31 01:22:11;;;;;;;28.60;25.38;;;;;21.30;100967.00;;;;2076677;28;20460;-53
2022/10/31 01:23:12;;;;;;;26.30;23.57;;;;;21.30;100968.00;;;;2069995;28;20222;-53
2022/10/31 01:24:13;;;;;;;26.97;24.10;;;;;21.30;100977.00;;;;2070993;28;20460;-53
2022/10/31 01:25:13;;;;;;;27.37;23.90;;;;;21.30;100982.00;;;;2067515;28;20233;-53
2022/10/31 01:26:17;;;;;;;27.23;23.30;;;;;21.30;100976.00;;;;2072590;28;20457;-53
2022/10/31 01:27:18;;;;;;;25.00;22.40;;;;;21.30;100976.00;;;;2079170;28;20205;-52
2022/10/31 01:28:18;;;;;;;23.57;21.13;;;;;21.30;100978.00;;;;2078239;28;20225;-53
2022/10/31 01:29:19;;;;;;;25.30;22.00;;;;;21.30;100974.00;;;;2079456;28;20248;-53
2022/10/31 01:30:19;;;;;;;24.80;22.00;;;;;21.30;100975.00;;;;2076231;28;20729;-52
2022/10/31 01:31:20;;;;;;;25.23;22.63;;;;;21.30;100981.00;;;;2078468;28;20293;-52
2022/10/31 01:32:21;;;;;;;25.75;22.92;;;;;21.00;100984.00;;;;2078073;28;20213;-52
2022/10/31 01:33:21;;;;;;;25.63;22.73;;;;;21.30;100981.00;;;;2078153;28;20226;-52
2022/10/31 01:34:23;;;;;;;24.60;22.10;;;;;21.30;100971.00;;;;2077972;28;20283;-52
2022/10/31 01:35:24;;;;;;;24.27;21.42;;;;;21.30;100980.00;;;;2078236;28;20221;-52
2022/10/31 01:36:25;;;;;;;24.00;21.40;;;;;21.30;100970.00;;;;2086209;28;20241;-53
2022/10/31 01:37:26;;;;;;;24.48;21.92;;;;;21.30;100983.00;;;;2077950;28;20217;-52
2022/10/31 01:38:26;;;;;;;23.70;20.80;;;;;21.30;100985.00;;;;2070500;28;20241;-52
2022/10/31 01:39:27;;;;;;;25.17;22.57;;;;;21.30;100983.00;;;;2070734;28;20518;-53
2022/10/31 01:40:29;;;;;;;23.90;21.50;;;;;21.30;100985.00;;;;2078090;28;20263;-52
2022/10/31 01:41:31;;;;;;;23.27;20.77;;;;;21.30;100985.00;;;;2078869;28;20216;-52
2022/10/31 01:42:31;;;;;;;24.55;22.05;;;;;21.30;100975.00;;;;2077204;28;20217;-52
2022/10/31 01:43:54;;;;;;;22.90;20.60;;;;;21.30;100988.00;;;;2078211;28;20216;-52
2022/10/31 01:44:57;;;;;;;23.27;20.60;;;;;21.30;100974.00;;;;2077910;28;20217;-52
2022/10/31 01:45:58;;;;;;;24.58;21.23;;;;;21.30;100979.00;;;;2077391;28;20213;-52
2022/10/31 01:46:59;;;;;;;22.40;20.00;;;;;21.30;100988.00;;;;2077610;28;20272;-53
2022/10/31 01:47:59;;;;;;;22.80;20.50;;;;;21.30;100972.00;;;;2078003;28;20209;-53
2022/10/31 01:49:03;;;;;;;21.97;19.70;;;;;21.30;100973.00;;;;2077273;28;20217;-53
2022/10/31 01:50:06;;;;;;;22.58;20.25;;;;;21.30;100964.00;;;;2078215;28;20228;-53
2022/10/31 01:51:06;;;;;;;24.00;19.50;;;;;21.30;100970.00;;;;2068678;28;20217;-52
2022/10/31 01:52:33;;;;;;;21.83;19.63;;;;;21.30;100960.00;;;;2052620;28;20234;-52
2022/10/31 01:53:33;;;;;;;22.30;19.77;;;;;21.30;100967.00;;;;2070281;28;20231;-53
2022/10/31 01:54:35;;;;;;;20.67;18.47;;;;;21.30;100965.00;;;;2078021;28;20221;-52
2022/10/31 01:55:39;;;;;;;21.50;19.30;;;;;21.30;100974.00;;;;2077425;28;20214;-52
2022/10/31 01:56:40;;;;;;;20.10;18.02;;;;;21.30;100971.00;;;;2077987;28;20221;-52
2022/10/31 01:57:42;;;;;;;20.98;18.73;;;;;21.30;100967.00;;;;2077844;28;20210;-53
2022/10/31 01:58:42;;;;;;;20.30;17.95;;;;;21.30;100966.00;;;;2064074;28;20302;-53
2022/10/31 01:59:46;;;;;;;20.20;18.07;;;;;21.30;100966.00;;;;2076439;28;20221;-53
2022/10/31 02:00:48;;;;;;;21.55;19.35;;;;;21.30;100970.00;;;;2058880;28;20265;-51
2022/10/31 02:01:49;;;;;;;22.80;18.50;;;;;21.30;100969.00;;;;2069020;28;20221;-52
2022/10/31 02:02:50;;;;;;;20.27;18.23;;;;;21.30;100968.00;;;;2070225;28;20304;-54
2022/10/31 02:03:51;;;;;;;20.35;18.02;;;;;21.30;100962.00;;;;2070154;28;20511;-52
2022/10/31 02:04:51;;;;;;;20.83;18.53;;;;;21.30;100959.00;;;;2069328;28;20210;-53
2022/10/31 02:05:54;;;;;;;20.97;18.77;;;;;21.30;100944.00;;;;2069110;28;20240;-53
2022/10/31 02:07:12;;;;;;;20.45;18.25;;;;;21.30;100942.00;;;;2069434;28;20249;-53
2022/10/31 02:08:31;;;;;;;19.80;17.70;;;;;21.30;100955.00;;;;2071793;28;20221;-52
2022/10/31 02:09:32;;;;;;;20.42;18.23;;;;;21.30;100920.00;;;;2061469;28;20241;-52
2022/10/31 02:10:32;;;;;;;17.40;14.90;;;;;21.30;100943.00;;;;2060740;28;20218;-53
2022/10/31 02:11:33;;;;;;;19.90;17.87;;;;;21.30;100944.00;;;;2078225;28;20444;-53
2022/10/31 02:12:34;;;;;;;18.73;16.77;;;;;21.20;100958.00;;;;2060441;28;20662;-52
2022/10/31 02:13:34;;;;;;;17.58;15.77;;;;;21.20;100940.00;;;;2053787;28;20711;-52
2022/10/31 02:14:35;;;;;;;18.37;16.43;;;;;21.20;100948.00;;;;2069519;28;20364;-52
2022/10/31 02:15:36;;;;;;;19.37;17.43;;;;;21.30;100950.00;;;;2062008;28;20210;-52
2022/10/31 02:16:36;;;;;;;18.85;16.95;;;;;21.30;100950.00;;;;2069696;28;20305;-52
2022/10/31 02:17:37;;;;;;;18.30;16.37;;;;;21.30;100945.00;;;;2078093;28;20213;-52
2022/10/31 02:18:37;;;;;;;18.90;17.00;;;;;21.20;100937.00;;;;2070428;28;20210;-52
2022/10/31 02:19:45;;;;;;;18.70;16.83;;;;;21.20;100930.00;;;;2069487;28;20449;-52
2022/10/31 02:21:12;;;;;;;18.80;16.90;;;;;21.30;100930.00;;;;2069213;28;20791;-52
2022/10/31 02:22:50;;;;;;;18.20;16.38;;;;;21.20;100927.00;;;;2069095;28;20272;-53
2022/10/31 02:24:18;;;;;;;18.27;16.38;;;;;21.30;100928.00;;;;2070547;28;20234;-53
2022/10/31 02:25:41;;;;;;;17.65;15.82;;;;;21.20;100941.00;;;;2069617;28;20242;-53
2022/10/31 02:26:43;;;;;;;18.13;15.73;;;;;21.20;100915.00;;;;2069227;28;20280;-52
2022/10/31 02:28:07;;;;;;;17.38;15.30;;;;;21.30;100946.00;;;;2069490;28;20787;-53
2022/10/31 02:29:19;;;;;;;18.63;16.67;;;;;21.30;100951.00;;;;2073097;28;20283;-53
2022/10/31 02:30:23;;;;;;;16.75;15.00;;;;;21.20;100952.00;;;;2076107;28;20233;-54
2022/10/31 02:31:27;;;;;;;16.52;14.60;;;;;21.20;100939.00;;;;2066342;28;20218;-54
2022/10/31 02:32:48;;;;;;;15.60;13.93;;;;;21.20;100943.00;;;;2068495;28;20300;-54
2022/10/31 02:33:53;;;;;;;16.52;14.82;;;;;21.20;100918.00;;;;2072567;28;20717;-52
2022/10/31 02:35:21;;;;;;;15.93;14.32;;;;;21.20;100933.00;;;;2077880;28;20606;-54
2022/10/31 02:36:54;;;;;;;15.13;13.52;;;;;21.20;100944.00;;;;2077223;28;20606;-53
2022/10/31 02:38:13;;;;;;;17.25;15.10;;;;;21.30;100948.00;;;;2069668;28;20202;-53
2022/10/31 02:39:21;;;;;;;17.23;14.23;;;;;21.20;100953.00;;;;2071837;28;20765;-53
2022/10/31 02:40:23;;;;;;;20.13;14.55;;;;;21.20;100947.00;;;;2078829;28;20222;-53
2022/10/31 02:42:05;;;;;;;19.45;14.50;;;;;21.30;100957.00;;;;2078134;28;20214;-53
2022/10/31 02:43:34;;;;;;;15.90;13.95;;;;;21.20;100951.00;;;;2044950;29;20363;-52
2022/10/31 02:44:40;;;;;;;16.48;14.73;;;;;21.10;100952.00;;;;2021472;29;20227;-54
2022/10/31 02:45:45;;;;;;;14.75;13.35;;;;;21.20;100950.00;;;;2058316;28;20244;-51
2022/10/31 02:46:59;;;;;;;15.65;13.13;;;;;21.20;100921.00;;;;2068648;28;20217;-51
2022/10/31 02:48:01;;;;;;;15.07;13.50;;;;;21.20;100953.00;;;;2076887;28;20228;-52
2022/10/31 02:49:18;;;;;;;15.77;12.32;;;;;21.20;100942.00;;;;2061355;28;20219;-53
2022/10/31 02:50:24;;;;;;;15.20;13.68;;;;;21.20;100945.00;;;;2071815;28;20611;-53
2022/10/31 02:51:24;;;;;;;14.48;12.98;;;;;21.20;100953.00;;;;2067925;28;20681;-53
2022/10/31 02:52:26;;;;;;;15.13;13.57;;;;;21.20;100923.00;;;;2068622;28;20211;-52
2022/10/31 02:53:26;;;;;;;14.45;12.95;;;;;21.20;100944.00;;;;2069283;28;20222;-53
2022/10/31 02:54:27;;;;;;;14.10;12.20;;;;;21.20;100951.00;;;;2066489;28;20301;-53
2022/10/31 02:55:27;;;;;;;13.63;11.90;;;;;21.20;100961.00;;;;2069404;28;20211;-53
2022/10/31 02:56:28;;;;;;;14.10;12.60;;;;;21.20;100934.00;;;;2069740;28;20214;-52
2022/10/31 02:57:31;;;;;;;14.73;13.20;;;;;21.20;100943.00;;;;2078112;28;20237;-53
2022/10/31 02:58:33;;;;;;;15.13;13.07;;;;;21.20;100937.00;;;;2077735;28;20758;-53
2022/10/31 02:59:34;;;;;;;15.23;13.05;;;;;21.20;100940.00;;;;2078298;28;20214;-53
2022/10/31 03:00:43;;;;;;;13.43;12.13;;;;;21.20;100925.00;;;;2077134;28;22302;-53
2022/10/31 03:02:14;;;;;;;14.05;12.65;;;;;21.20;100944.00;;;;2078634;28;20297;-54
2022/10/31 03:03:17;;;;;;;14.27;12.80;;;;;21.20;100956.00;;;;2081809;28;20355;-52
2022/10/31 03:04:23;;;;;;;14.80;13.30;;;;;21.20;100952.00;;;;2076968;28;20304;-53
2022/10/31 03:05:48;;;;;;;13.50;12.10;;;;;21.20;100952.00;;;;2070389;28;20690;-54
2022/10/31 03:07:14;;;;;;;13.88;12.48;;;;;21.20;100959.00;;;;2077604;28;20202;-52
2022/10/31 03:08:29;;;;;;;13.52;12.10;;;;;20.80;100965.00;;;;2077054;28;20221;-53
2022/10/31 03:09:48;;;;;;;13.40;12.07;;;;;21.20;100956.00;;;;2074249;28;20213;-53
2022/10/31 03:10:56;;;;;;;13.63;11.57;;;;;21.20;100958.00;;;;2077042;28;20312;-53
2022/10/31 03:12:02;;;;;;;12.68;10.23;;;;;21.20;100962.00;;;;2066206;28;20214;-52
2022/10/31 03:13:19;;;;;;;12.70;11.40;;;;;21.20;100964.00;;;;2078113;28;20927;-52
2022/10/31 03:14:22;;;;;;;12.40;11.10;;;;;21.20;100962.00;;;;2077750;28;20308;-52
2022/10/31 03:15:26;;;;;;;12.65;11.35;;;;;21.20;100972.00;;;;2070956;28;20215;-52
2022/10/31 03:16:42;;;;;;;12.77;11.45;;;;;21.20;100962.00;;;;2070115;28;20276;-51
2022/10/31 03:17:54;;;;;;;14.60;13.10;;;;;21.20;100959.00;;;;2061636;28;20240;-54
2022/10/31 03:19:14;;;;;;;14.50;13.00;;;;;21.20;100944.00;;;;2065036;28;20286;-52
2022/10/31 03:20:14;;;;;;;13.68;12.27;;;;;21.20;100926.00;;;;2077512;28;20210;-53
2022/10/31 03:21:18;;;;;;;12.73;11.43;;;;;21.20;100957.00;;;;2076987;28;20291;-52
2022/10/31 03:22:23;;;;;;;13.38;11.98;;;;;21.20;100964.00;;;;2075561;28;20218;-56
2022/10/31 03:23:23;;;;;;;13.02;11.70;;;;;21.20;100959.00;;;;2061731;28;20291;-53
2022/10/31 03:24:25;;;;;;;12.70;11.50;;;;;21.20;100962.00;;;;2077609;28;20275;-53
2022/10/31 03:25:25;;;;;;;13.23;11.82;;;;;21.20;100975.00;;;;2076707;28;20873;-52
2022/10/31 03:26:27;;;;;;;15.03;11.20;;;;;21.20;100959.00;;;;2077160;28;20222;-52
2022/10/31 03:27:28;;;;;;;13.10;11.80;;;;;20.80;100970.00;;;;2084718;28;20220;-53
2022/10/31 03:28:30;;;;;;;12.30;11.00;;;;;21.20;100974.00;;;;2068534;28;20595;-52
2022/10/31 03:29:33;;;;;;;15.18;11.48;;;;;21.20;100969.00;;;;2075953;28;20221;-53
2022/10/31 03:30:34;;;;;;;12.45;10.50;;;;;21.20;100966.00;;;;2076791;28;20304;-53
2022/10/31 03:31:37;;;;;;;11.82;10.45;;;;;21.20;100949.00;;;;2067669;28;20312;-53
2022/10/31 03:32:47;;;;;;;13.80;12.27;;;;;21.20;100958.00;;;;2067970;28;20250;-52
2022/10/31 03:33:47;;;;;;;12.55;10.60;;;;;21.20;100964.00;;;;2053759;28;20215;-52
2022/10/31 03:34:47;;;;;;;12.73;11.43;;;;;21.20;100964.00;;;;2060899;28;20367;-52
2022/10/31 03:35:48;;;;;;;11.70;10.50;;;;;21.20;100964.00;;;;2077631;28;20267;-53
2022/10/31 03:36:50;;;;;;;12.20;11.07;;;;;21.20;100963.00;;;;2077769;28;20717;-52
2022/10/31 03:37:51;;;;;;;12.43;11.13;;;;;21.20;100955.00;;;;2073592;28;20725;-54
2022/10/31 03:38:52;;;;;;;11.85;10.68;;;;;21.20;100959.00;;;;2069469;28;20216;-52
2022/10/31 03:39:53;;;;;;;12.17;10.57;;;;;21.20;100951.00;;;;2068153;28;20587;-52
2022/10/31 03:40:53;;;;;;;10.80;9.70;;;;;21.20;100931.00;;;;2061594;28;20241;-53
2022/10/31 03:42:09;;;;;;;11.40;10.20;;;;;21.20;100950.00;;;;2051268;28;20215;-53
2022/10/31 03:43:12;;;;;;;12.40;10.90;;;;;21.20;100951.00;;;;2063952;28;20217;-53
2022/10/31 03:44:14;;;;;;;13.20;10.27;;;;;21.20;100954.00;;;;2064569;28;20277;-53
2022/10/31 03:45:18;;;;;;;11.07;9.75;;;;;21.20;100949.00;;;;2071068;28;20297;-52
2022/10/31 03:46:18;;;;;;;10.70;9.60;;;;;21.20;100954.00;;;;2079651;28;20217;-53
2022/10/31 03:47:18;;;;;;;11.03;9.83;;;;;21.20;100954.00;;;;2087540;28;20263;-53
2022/10/31 03:48:19;;;;;;;11.40;10.30;;;;;21.20;100919.00;;;;2072929;28;20214;-52
2022/10/31 03:49:19;;;;;;;10.20;9.20;;;;;21.20;100950.00;;;;2078273;28;20244;-53
2022/10/31 03:50:19;;;;;;;10.67;9.63;;;;;21.20;100960.00;;;;2072922;28;20349;-53
2022/10/31 03:51:26;;;;;;;11.37;9.67;;;;;21.20;100953.00;;;;2084428;28;20222;-53
2022/10/31 03:52:47;;;;;;;11.57;9.23;;;;;21.20;100956.00;;;;2054866;28;20686;-53
2022/10/31 03:53:56;;;;;;;11.02;9.45;;;;;21.20;100962.00;;;;2068365;28;20233;-52
2022/10/31 03:54:58;;;;;;;11.98;9.43;;;;;21.20;100950.00;;;;2062863;28;20633;-53
2022/10/31 03:56:09;;;;;;;11.43;9.48;;;;;21.20;100948.00;;;;2063518;28;20214;-53
2022/10/31 03:57:29;;;;;;;11.13;8.80;;;;;21.20;100949.00;;;;2069848;28;20249;-52
2022/10/31 03:58:39;;;;;;;11.40;9.48;;;;;21.20;100926.00;;;;2068397;28;20233;-53
2022/10/31 03:59:44;;;;;;;9.63;8.65;;;;;21.20;100947.00;;;;2071272;28;20210;-54
2022/10/31 04:00:44;;;;;;;9.63;8.63;;;;;21.10;100943.00;;;;2071205;28;20226;-52
2022/10/31 04:01:48;;;;;;;10.10;8.97;;;;;21.10;100939.00;;;;2070900;28;20214;-53
2022/10/31 04:03:06;;;;;;;9.13;8.23;;;;;21.10;100957.00;;;;2070331;28;20226;-52
2022/10/31 04:04:06;;;;;;;10.45;7.97;;;;;21.10;100955.00;;;;2063226;28;20221;-53
2022/10/31 04:05:07;;;;;;;9.33;8.43;;;;;21.20;100947.00;;;;2054209;28;20326;-52
2022/10/31 04:06:09;;;;;;;9.53;8.47;;;;;21.10;100960.00;;;;2062841;28;20219;-52
2022/10/31 04:07:09;;;;;;;9.48;8.57;;;;;21.20;100960.00;;;;2071045;28;20222;-53
2022/10/31 04:08:11;;;;;;;9.07;8.20;;;;;21.10;100947.00;;;;2062915;28;20801;-54
2022/10/31 04:09:11;;;;;;;12.45;8.85;;;;;21.10;100945.00;;;;2055178;28;20219;-54
2022/10/31 04:10:13;;;;;;;8.87;7.97;;;;;21.10;100954.00;;;;2063199;28;20227;-53
2022/10/31 04:11:13;;;;;;;8.63;7.70;;;;;21.10;100950.00;;;;2079338;28;20228;-53
2022/10/31 04:12:16;;;;;;;8.70;7.90;;;;;20.70;100967.00;;;;2062159;28;20203;-53
2022/10/31 04:13:19;;;;;;;9.88;8.88;;;;;21.10;100955.00;;;;2064014;28;20207;-53
2022/10/31 04:14:20;;;;;;;9.27;8.13;;;;;21.20;100947.00;;;;2063228;28;20679;-53
2022/10/31 04:15:20;;;;;;;8.87;7.90;;;;;21.10;100959.00;;;;2062800;28;20302;-51
2022/10/31 04:16:20;;;;;;;8.50;7.60;;;;;21.20;100945.00;;;;2071015;28;20457;-53
2022/10/31 04:17:21;;;;;;;9.70;8.33;;;;;21.10;100944.00;;;;2071742;28;20301;-51
2022/10/31 04:18:24;;;;;;;9.50;7.33;;;;;21.10;100938.00;;;;2071202;28;20222;-53
2022/10/31 04:19:25;;;;;;;10.55;9.25;;;;;21.10;100949.00;;;;2071451;28;20203;-52
2022/10/31 04:20:30;;;;;;;9.97;8.37;;;;;21.20;100945.00;;;;2068737;28;20249;-53
2022/10/31 04:21:30;;;;;;;9.43;8.52;;;;;21.10;100947.00;;;;2070913;28;20214;-52
2022/10/31 04:22:31;;;;;;;9.03;8.13;;;;;21.10;100947.00;;;;2071060;28;20292;-53
2022/10/31 04:23:31;;;;;;;8.40;7.60;;;;;21.10;100942.00;;;;2071579;28;20207;-53
2022/10/31 04:24:32;;;;;;;9.10;8.23;;;;;21.10;100935.00;;;;2071883;28;20280;-52
2022/10/31 04:25:32;;;;;;;8.43;7.60;;;;;21.10;100940.00;;;;2071685;28;20300;-53
2022/10/31 04:26:32;;;;;;;10.40;9.30;;;;;21.10;100930.00;;;;2078388;28;20216;-52
2022/10/31 04:27:33;;;;;;;10.10;8.20;;;;;21.10;100937.00;;;;2071185;28;20202;-52
2022/10/31 04:28:33;;;;;;;8.77;7.57;;;;;21.20;100941.00;;;;2071415;28;20221;-52
2022/10/31 04:29:34;;;;;;;9.00;8.20;;;;;21.20;100941.00;;;;2071699;28;20210;-52
2022/10/31 04:30:34;;;;;;;10.50;7.20;;;;;21.10;100938.00;;;;2071918;28;20222;-53
2022/10/31 04:31:34;;;;;;;9.27;8.37;;;;;21.10;100935.00;;;;2071704;28;20297;-52
2022/10/31 04:32:35;;;;;;;8.60;7.67;;;;;21.10;100935.00;;;;2071166;28;20210;-52
2022/10/31 04:33:35;;;;;;;8.23;7.10;;;;;21.10;100927.00;;;;2071647;28;20206;-53
2022/10/31 04:34:36;;;;;;;12.43;8.00;;;;;21.10;100939.00;;;;2071152;28;20213;-52
2022/10/31 04:35:36;;;;;;;8.07;7.27;;;;;21.10;100940.00;;;;2071476;28;20214;-52
2022/10/31 04:36:37;;;;;;;9.80;7.83;;;;;21.10;100941.00;;;;2076774;28;20240;-52
2022/10/31 04:37:39;;;;;;;8.45;7.15;;;;;21.20;100952.00;;;;2077304;28;20288;-52
2022/10/31 04:38:40;;;;;;;8.10;7.30;;;;;21.20;100941.00;;;;2071687;28;20218;-52
2022/10/31 04:39:40;;;;;;;8.17;7.30;;;;;21.10;100940.00;;;;2070414;28;20218;-52
2022/10/31 04:40:41;;;;;;;7.67;6.97;;;;;21.10;100940.00;;;;2071671;28;20546;-52
2022/10/31 04:41:42;;;;;;;9.30;7.70;;;;;21.10;100947.00;;;;2071437;28;20822;-51
2022/10/31 04:42:42;;;;;;;8.33;7.23;;;;;21.10;100938.00;;;;2070998;28;20202;-53
2022/10/31 04:43:43;;;;;;;8.67;6.60;;;;;21.10;100942.00;;;;2071498;28;20485;-52
2022/10/31 04:44:43;;;;;;;7.60;6.80;;;;;21.10;100943.00;;;;2068866;28;20237;-52
2022/10/31 04:45:43;;;;;;;8.27;7.40;;;;;21.10;100956.00;;;;2071005;28;20753;-52
2022/10/31 04:46:44;;;;;;;9.27;8.13;;;;;21.10;100942.00;;;;2071721;28;20609;-51
2022/10/31 04:47:45;;;;;;;10.83;7.40;;;;;21.10;100944.00;;;;2071611;28;20717;-53
2022/10/31 04:48:46;;;;;;;7.20;6.50;;;;;21.10;100934.00;;;;2071699;28;20217;-51
2022/10/31 04:49:46;;;;;;;7.82;7.03;;;;;21.10;100932.00;;;;2071478;28;20468;-51
2022/10/31 04:50:47;;;;;;;8.23;6.70;;;;;21.10;100925.00;;;;2067965;28;20218;-52
2022/10/31 04:51:47;;;;;;;7.67;6.40;;;;;21.10;100925.00;;;;2071035;28;20218;-51
2022/10/31 04:52:48;;;;;;;8.90;7.60;;;;;21.10;100925.00;;;;2071205;28;20211;-52
2022/10/31 04:53:48;;;;;;;9.37;7.10;;;;;21.10;100928.00;;;;2071391;28;20210;-51
2022/10/31 04:54:48;;;;;;;7.87;6.83;;;;;21.10;100929.00;;;;2076683;28;20272;-52
2022/10/31 04:55:49;;;;;;;8.50;7.10;;;;;21.10;100923.00;;;;2078692;28;20210;-52
2022/10/31 04:56:52;;;;;;;7.63;6.80;;;;;21.10;100920.00;;;;2068566;28;20465;-56
2022/10/31 04:57:52;;;;;;;8.15;7.03;;;;;21.10;100927.00;;;;2070699;28;20222;-53
2022/10/31 04:58:53;;;;;;;7.17;6.50;;;;;21.10;100930.00;;;;2069695;28;20219;-52
2022/10/31 04:59:53;;;;;;;7.43;6.67;;;;;21.10;100928.00;;;;2071170;28;20246;-53
2022/10/31 05:00:54;;;;;;;8.23;7.43;;;;;21.10;100926.00;;;;2069994;28;20579;-53
2022/10/31 05:01:54;;;;;;;8.00;6.73;;;;;21.10;100924.00;;;;2069716;28;20226;-53
2022/10/31 05:02:58;;;;;;;7.47;6.30;;;;;21.10;100931.00;;;;2070623;28;20781;-52
2022/10/31 05:03:58;;;;;;;7.15;6.45;;;;;21.10;100922.00;;;;2078016;28;20217;-52
2022/10/31 05:04:59;;;;;;;7.80;7.00;;;;;21.10;100927.00;;;;2069472;28;20718;-53
2022/10/31 05:05:59;;;;;;;6.80;6.20;;;;;21.10;100927.00;;;;2069950;28;20221;-51
2022/10/31 05:06:59;;;;;;;10.53;6.30;;;;;21.10;100931.00;;;;2071268;28;20288;-52
2022/10/31 05:07:59;;;;;;;8.03;7.20;;;;;21.10;100931.00;;;;2071300;28;20218;-52